sensor_id;sensor_type;location;lat;lon;timestamp;pressure;altitude;pressure_sealevel;temperature;humidity
7668;BME280;3876;42.204;24.686;2023-03-20T00:00:57;99903.75;;;8.18;80.20
7668;BME280;3876;42.204;24.686;2023-03-20T00:03:25;99896.13;;;8.15;80.34
7668;BME280;3876;42.204;24.686;2023-03-20T00:05:53;99888.50;;;8.12;80.78
7668;BME280;3876;42.204;24.686;2023-03-20T00:08:20;99891.94;;;8.08;81.16
7668;BME280;3876;42.204;24.686;2023-03-20T00:10:46;99886.97;;;7.99;81.44
7668;BME280;3876;42.204;24.686;2023-03-20T00:13:17;99880.22;;;7.93;81.89
7668;BME280;3876;42.204;24.686;2023-03-20T00:15:47;99880.31;;;7.86;82.39
7668;BME280;3876;42.204;24.686;2023-03-20T00:18:15;99875.28;;;7.81;82.66
7668;BME280;3876;42.204;24.686;2023-03-20T00:20:44;99857.53;;;7.69;82.95
7668;BME280;3876;42.204;24.686;2023-03-20T00:23:13;99871.09;;;7.73;83.29
7668;BME280;3876;42.204;24.686;2023-03-20T00:25:41;99865.19;;;7.71;83.65
7668;BME280;3876;42.204;24.686;2023-03-20T00:28:28;99865.25;;;7.63;83.31
7668;BME280;3876;42.204;24.686;2023-03-20T00:30:56;99872.88;;;7.66;83.62
7668;BME280;3876;42.204;24.686;2023-03-20T00:33:24;99865.25;;;7.63;83.59
7668;BME280;3876;42.204;24.686;2023-03-20T00:35:51;99868.69;;;7.61;83.60
7668;BME280;3876;42.204;24.686;2023-03-20T00:38:19;99846.69;;;7.52;83.13
7668;BME280;3876;42.204;24.686;2023-03-20T00:40:46;99858.50;;;7.61;83.19
7668;BME280;3876;42.204;24.686;2023-03-20T00:43:13;99857.69;;;7.59;83.64
7668;BME280;3876;42.204;24.686;2023-03-20T00:45:44;99853.50;;;7.52;84.11
7668;BME280;3876;42.204;24.686;2023-03-20T00:48:13;99851.81;;;7.48;84.83
7668;BME280;3876;42.204;24.686;2023-03-20T00:50:40;99846.75;;;7.45;85.28
7668;BME280;3876;42.204;24.686;2023-03-20T00:53:08;99850.16;;;7.44;84.88
7668;BME280;3876;42.204;24.686;2023-03-20T00:55:38;99837.53;;;7.33;85.04
7668;BME280;3876;42.204;24.686;2023-03-20T00:58:06;99851.06;;;7.39;85.07
7668;BME280;3876;42.204;24.686;2023-03-20T01:00:37;99851.94;;;7.38;84.52
7668;BME280;3876;42.204;24.686;2023-03-20T01:03:14;99852.88;;;7.30;84.18
7668;BME280;3876;42.204;24.686;2023-03-20T01:05:41;99830.94;;;7.12;83.81
7668;BME280;3876;42.204;24.686;2023-03-20T01:08:12;99846.16;;;7.20;84.36
7668;BME280;3876;42.204;24.686;2023-03-20T01:10:42;99843.66;;;7.15;84.99
7668;BME280;3876;42.204;24.686;2023-03-20T01:13:17;99857.28;;;7.11;85.19
7668;BME280;3876;42.204;24.686;2023-03-20T01:15:45;99843.72;;;7.09;85.42
7668;BME280;3876;42.204;24.686;2023-03-20T01:18:13;99846.28;;;7.05;85.33
7668;BME280;3876;42.204;24.686;2023-03-20T01:20:41;99840.38;;;7.03;85.77
7668;BME280;3876;42.204;24.686;2023-03-20T01:23:08;99828.63;;;6.88;85.79
7668;BME280;3876;42.204;24.686;2023-03-20T01:25:35;99836.19;;;6.96;85.69
7668;BME280;3876;42.204;24.686;2023-03-20T01:28:12;99838.75;;;6.94;85.92
7668;BME280;3876;42.204;24.686;2023-03-20T01:30:39;99838.78;;;6.90;86.12
7668;BME280;3876;42.204;24.686;2023-03-20T01:33:12;99832.03;;;6.84;85.91
7668;BME280;3876;42.204;24.686;2023-03-20T01:35:39;99835.41;;;6.86;85.42
7668;BME280;3876;42.204;24.686;2023-03-20T01:38:11;99830.34;;;6.83;84.62
7668;BME280;3876;42.204;24.686;2023-03-20T01:40:46;99830.38;;;6.80;84.44
7668;BME280;3876;42.204;24.686;2023-03-20T01:43:18;99831.22;;;6.79;84.28
7668;BME280;3876;42.204;24.686;2023-03-20T01:45:53;99827.03;;;6.75;84.99
7668;BME280;3876;42.204;24.686;2023-03-20T01:48:25;99829.56;;;6.73;84.71
7668;BME280;3876;42.204;24.686;2023-03-20T01:50:53;99829.59;;;6.72;85.03
7668;BME280;3876;42.204;24.686;2023-03-20T01:53:22;99823.66;;;6.70;85.29
7668;BME280;3876;42.204;24.686;2023-03-20T01:55:53;99823.69;;;6.67;85.11
7668;BME280;3876;42.204;24.686;2023-03-20T01:58:27;99830.50;;;6.65;85.46
7668;BME280;3876;42.204;24.686;2023-03-20T02:00:58;99808.50;;;6.55;85.60
7668;BME280;3876;42.204;24.686;2023-03-20T02:03:25;99826.25;;;6.64;85.30
7668;BME280;3876;42.204;24.686;2023-03-20T02:05:54;99827.97;;;6.60;85.46
7668;BME280;3876;42.204;24.686;2023-03-20T02:08:25;99822.91;;;6.59;85.99
7668;BME280;3876;42.204;24.686;2023-03-20T02:10:53;99825.47;;;6.56;85.84
7668;BME280;3876;42.204;24.686;2023-03-20T02:13:23;99827.19;;;6.51;85.09
7668;BME280;3876;42.204;24.686;2023-03-20T02:15:57;99829.75;;;6.48;85.20
7668;BME280;3876;42.204;24.686;2023-03-20T02:18:25;99821.31;;;6.41;85.48
7668;BME280;3876;42.204;24.686;2023-03-20T02:21:14;99825.59;;;6.39;85.33
7668;BME280;3876;42.204;24.686;2023-03-20T02:24:03;99811.16;;;6.37;85.42
7668;BME280;3876;42.204;24.686;2023-03-20T02:26:46;99823.09;;;6.33;85.84
7668;BME280;3876;42.204;24.686;2023-03-20T02:29:36;99820.56;;;6.28;85.79
7668;BME280;3876;42.204;24.686;2023-03-20T02:32:41;99816.34;;;6.23;85.81
7668;BME280;3876;42.204;24.686;2023-03-20T02:35:25;99815.53;;;6.19;85.79
7668;BME280;3876;42.204;24.686;2023-03-20T02:38:29;99815.53;;;6.16;85.51
7668;BME280;3876;42.204;24.686;2023-03-20T02:41:05;99815.59;;;6.10;85.66
7668;BME280;3876;42.204;24.686;2023-03-20T02:43:42;99811.38;;;6.03;85.14
7668;BME280;3876;42.204;24.686;2023-03-20T02:46:24;99812.25;;;5.99;85.15
7668;BME280;3876;42.204;24.686;2023-03-20T02:48:57;99767.38;;;5.74;84.83
7668;BME280;3876;42.204;24.686;2023-03-20T02:51:34;99805.53;;;5.81;84.01
7668;BME280;3876;42.204;24.686;2023-03-20T02:54:07;99808.91;;;5.79;83.79
7668;BME280;3876;42.204;24.686;2023-03-20T02:56:42;99810.66;;;5.68;83.87
7668;BME280;3876;42.204;24.686;2023-03-20T02:59:21;99807.31;;;5.51;84.36
7668;BME280;3876;42.204;24.686;2023-03-20T03:01:53;99789.56;;;5.34;83.88
7668;BME280;3876;42.204;24.686;2023-03-20T03:04:25;99810.78;;;5.32;84.70
7668;BME280;3876;42.204;24.686;2023-03-20T03:06:54;99804.00;;;5.24;85.25
7668;BME280;3876;42.204;24.686;2023-03-20T03:09:28;99802.31;;;5.23;86.04
7668;BME280;3876;42.204;24.686;2023-03-20T03:12:01;99777.78;;;5.09;85.94
7668;BME280;3876;42.204;24.686;2023-03-20T03:14:34;99780.34;;;5.10;86.07
7668;BME280;3876;42.204;24.686;2023-03-20T03:17:03;99794.72;;;5.19;86.16
7668;BME280;3876;42.204;24.686;2023-03-20T03:19:33;99804.00;;;5.24;86.01
7668;BME280;3876;42.204;24.686;2023-03-20T03:22:02;99796.38;;;5.24;86.08
7668;BME280;3876;42.204;24.686;2023-03-20T03:24:32;99801.47;;;5.26;85.81
7668;BME280;3876;42.204;24.686;2023-03-20T03:27:01;99805.72;;;5.25;85.48
7668;BME280;3876;42.204;24.686;2023-03-20T03:29:32;99800.63;;;5.22;85.74
7668;BME280;3876;42.204;24.686;2023-03-20T03:32:01;99793.84;;;5.24;85.31
7668;BME280;3876;42.204;24.686;2023-03-20T03:34:29;99793.00;;;5.22;85.48
7668;BME280;3876;42.204;24.686;2023-03-20T03:37:02;99800.66;;;5.19;85.37
7668;BME280;3876;42.204;24.686;2023-03-20T03:39:38;99793.84;;;5.18;85.22
7668;BME280;3876;42.204;24.686;2023-03-20T03:42:12;99795.56;;;5.15;84.96
7668;BME280;3876;42.204;24.686;2023-03-20T03:44:49;99781.19;;;5.03;84.42
7668;BME280;3876;42.204;24.686;2023-03-20T03:47:21;99805.75;;;5.10;84.30
7668;BME280;3876;42.204;24.686;2023-03-20T03:49:57;99806.56;;;5.11;84.14
7668;BME280;3876;42.204;24.686;2023-03-20T03:52:27;99807.44;;;5.08;84.04
7668;BME280;3876;42.204;24.686;2023-03-20T03:54:59;99798.97;;;5.03;84.25
7668;BME280;3876;42.204;24.686;2023-03-20T03:57:30;99787.13;;;4.89;84.20
7668;BME280;3876;42.204;24.686;2023-03-20T04:00:00;99808.28;;;5.01;84.28
7668;BME280;3876;42.204;24.686;2023-03-20T04:02:29;99810.00;;;4.96;84.11
7668;BME280;3876;42.204;24.686;2023-03-20T04:04:57;99808.31;;;4.88;84.68
7668;BME280;3876;42.204;24.686;2023-03-20T04:07:26;99798.16;;;4.78;84.99
7668;BME280;3876;42.204;24.686;2023-03-20T04:09:54;99786.31;;;4.70;84.66
7668;BME280;3876;42.204;24.686;2023-03-20T04:12:33;99813.41;;;4.85;85.05
7668;BME280;3876;42.204;24.686;2023-03-20T04:15:01;99794.78;;;4.76;85.02
7668;BME280;3876;42.204;24.686;2023-03-20T04:17:28;99803.22;;;4.83;84.64
7668;BME280;3876;42.204;24.686;2023-03-20T04:19:55;99801.53;;;4.79;84.90
7668;BME280;3876;42.204;24.686;2023-03-20T04:22:22;99796.47;;;4.74;84.55
7668;BME280;3876;42.204;24.686;2023-03-20T04:24:49;99791.41;;;4.74;84.66
7668;BME280;3876;42.204;24.686;2023-03-20T04:27:17;99805.78;;;4.74;84.87
7668;BME280;3876;42.204;24.686;2023-03-20T04:29:45;99797.31;;;4.70;85.17
7668;BME280;3876;42.204;24.686;2023-03-20T04:32:12;99796.47;;;4.67;85.11
7668;BME280;3876;42.204;24.686;2023-03-20T04:34:39;99782.94;;;4.60;85.15
7668;BME280;3876;42.204;24.686;2023-03-20T04:37:06;99801.56;;;4.68;85.42
7668;BME280;3876;42.204;24.686;2023-03-20T04:39:33;99797.31;;;4.69;85.69
7668;BME280;3876;42.204;24.686;2023-03-20T04:42:01;99801.53;;;4.70;85.80
7668;BME280;3876;42.204;24.686;2023-03-20T04:44:28;99799.03;;;4.68;85.52
7668;BME280;3876;42.204;24.686;2023-03-20T04:46:56;99793.94;;;4.61;85.89
7668;BME280;3876;42.204;24.686;2023-03-20T04:49:23;99791.38;;;4.62;86.06
7668;BME280;3876;42.204;24.686;2023-03-20T04:51:50;99795.59;;;4.59;86.11
7668;BME280;3876;42.204;24.686;2023-03-20T04:54:17;99804.91;;;4.60;86.34
7668;BME280;3876;42.204;24.686;2023-03-20T04:56:44;99811.69;;;4.61;86.86
7668;BME280;3876;42.204;24.686;2023-03-20T04:59:10;99817.63;;;4.63;87.01
7668;BME280;3876;42.204;24.686;2023-03-20T05:01:37;99817.63;;;4.66;86.95
7668;BME280;3876;42.204;24.686;2023-03-20T05:04:06;99815.94;;;4.71;87.29
7668;BME280;3876;42.204;24.686;2023-03-20T05:06:33;99815.06;;;4.72;87.54
7668;BME280;3876;42.204;24.686;2023-03-20T05:08:59;99812.53;;;4.72;87.60
7668;BME280;3876;42.204;24.686;2023-03-20T05:11:27;99813.41;;;4.77;87.96
7668;BME280;3876;42.204;24.686;2023-03-20T05:13:54;99823.53;;;4.82;87.96
7668;BME280;3876;42.204;24.686;2023-03-20T05:16:21;99815.94;;;4.86;88.43
7668;BME280;3876;42.204;24.686;2023-03-20T05:18:48;99810.00;;;4.96;88.75
7668;BME280;3876;42.204;24.686;2023-03-20T05:21:16;99815.06;;;5.04;88.74
7668;BME280;3876;42.204;24.686;2023-03-20T05:23:43;99815.91;;;5.16;88.67
7668;BME280;3876;42.204;24.686;2023-03-20T05:26:10;99815.84;;;5.32;88.02
7668;BME280;3876;42.204;24.686;2023-03-20T05:28:37;99810.72;;;5.44;87.76
7668;BME280;3876;42.204;24.686;2023-03-20T05:31:04;99787.84;;;5.44;87.57
7668;BME280;3876;42.204;24.686;2023-03-20T05:33:31;99808.97;;;5.64;86.38
7668;BME280;3876;42.204;24.686;2023-03-20T05:35:58;99806.41;;;5.71;86.70
7668;BME280;3876;42.204;24.686;2023-03-20T05:38:26;99808.06;;;5.88;87.41
7668;BME280;3876;42.204;24.686;2023-03-20T05:40:56;99818.97;;;6.09;87.62
7668;BME280;3876;42.204;24.686;2023-03-20T05:43:24;99817.16;;;6.29;87.45
7668;BME280;3876;42.204;24.686;2023-03-20T05:45:52;99805.16;;;6.44;86.18
7668;BME280;3876;42.204;24.686;2023-03-20T05:48:18;99821.09;;;6.71;85.02
7668;BME280;3876;42.204;24.686;2023-03-20T05:50:46;99820.13;;;6.86;84.24
7668;BME280;3876;42.204;24.686;2023-03-20T05:53:12;99807.22;;;7.01;83.60
7668;BME280;3876;42.204;24.686;2023-03-20T05:55:41;99811.25;;;7.26;82.97
7668;BME280;3876;42.204;24.686;2023-03-20T05:58:09;99814.41;;;7.47;82.01
7668;BME280;3876;42.204;24.686;2023-03-20T06:00:36;99823.66;;;7.58;81.95
7668;BME280;3876;42.204;24.686;2023-03-20T06:03:03;99795.53;;;7.63;81.52
7668;BME280;3876;42.204;24.686;2023-03-20T06:05:31;99821.69;;;7.81;81.59
7668;BME280;3876;42.204;24.686;2023-03-20T06:07:58;99823.31;;;7.85;81.44
7668;BME280;3876;42.204;24.686;2023-03-20T06:10:24;99830.91;;;7.90;83.06
7668;BME280;3876;42.204;24.686;2023-03-20T06:12:53;99805.31;;;7.96;82.78
7668;BME280;3876;42.204;24.686;2023-03-20T06:15:20;99825.56;;;8.10;81.17
7668;BME280;3876;42.204;24.686;2023-03-20T06:17:47;99823.84;;;8.10;81.95
7668;BME280;3876;42.204;24.686;2023-03-20T06:20:14;99818.66;;;8.16;82.05
7668;BME280;3876;42.204;24.686;2023-03-20T06:22:41;99807.75;;;8.05;82.60
7668;BME280;3876;42.204;24.686;2023-03-20T06:25:08;99811.81;;;8.18;83.72
7668;BME280;3876;42.204;24.686;2023-03-20T06:27:35;99807.69;;;8.10;83.98
7668;BME280;3876;42.204;24.686;2023-03-20T06:30:05;99817.38;;;7.85;86.37
7668;BME280;3876;42.204;24.686;2023-03-20T06:32:32;99810.63;;;7.81;88.22
7668;BME280;3876;42.204;24.686;2023-03-20T06:34:59;99806.28;;;7.87;89.37
7668;BME280;3876;42.204;24.686;2023-03-20T06:37:25;99809.25;;;8.18;89.04
7668;BME280;3876;42.204;24.686;2023-03-20T06:39:52;99804.75;;;8.38;89.13
7668;BME280;3876;42.204;24.686;2023-03-20T06:42:19;99803.75;;;8.47;88.31
7668;BME280;3876;42.204;24.686;2023-03-20T06:44:46;99811.16;;;8.64;87.84
7668;BME280;3876;42.204;24.686;2023-03-20T06:47:14;99803.16;;;8.85;87.64
7668;BME280;3876;42.204;24.686;2023-03-20T06:49:41;99784.22;;;8.95;86.88
7668;BME280;3876;42.204;24.686;2023-03-20T06:52:13;99803.44;;;9.17;88.69
7668;BME280;3876;42.204;24.686;2023-03-20T06:54:41;99801.63;;;9.22;87.96
7668;BME280;3876;42.204;24.686;2023-03-20T06:57:08;99808.41;;;9.26;87.46
7668;BME280;3876;42.204;24.686;2023-03-20T06:59:35;99794.56;;;9.36;86.64
7668;BME280;3876;42.204;24.686;2023-03-20T07:02:03;99784.22;;;9.42;86.68
7668;BME280;3876;42.204;24.686;2023-03-20T07:04:31;99803.91;;;9.80;86.38
7668;BME280;3876;42.204;24.686;2023-03-20T07:06:58;99806.84;;;10.02;84.96
7668;BME280;3876;42.204;24.686;2023-03-20T07:09:25;99802.44;;;10.10;84.32
7668;BME280;3876;42.204;24.686;2023-03-20T07:11:52;99806.38;;;10.26;84.01
7668;BME280;3876;42.204;24.686;2023-03-20T07:14:19;99810.44;;;10.35;83.20
7668;BME280;3876;42.204;24.686;2023-03-20T07:16:46;99809.25;;;10.49;82.29
7668;BME280;3876;42.204;24.686;2023-03-20T07:19:13;99806.84;;;10.79;83.44
7668;BME280;3876;42.204;24.686;2023-03-20T07:21:42;99782.69;;;10.86;82.73
7668;BME280;3876;42.204;24.686;2023-03-20T07:24:09;99810.72;;;11.27;80.67
7668;BME280;3876;42.204;24.686;2023-03-20T07:26:36;99794.50;;;11.25;80.20
7668;BME280;3876;42.204;24.686;2023-03-20T07:29:04;99805.66;;;11.24;80.12
7668;BME280;3876;42.204;24.686;2023-03-20T07:31:30;99801.72;;;11.43;79.89
7668;BME280;3876;42.204;24.686;2023-03-20T07:33:57;99800.25;;;11.66;79.37
7668;BME280;3876;42.204;24.686;2023-03-20T07:36:24;99790.34;;;11.83;77.48
7668;BME280;3876;42.204;24.686;2023-03-20T07:38:52;99798.22;;;11.77;78.20
7668;BME280;3876;42.204;24.686;2023-03-20T07:41:19;99799.06;;;11.79;78.18
7668;BME280;3876;42.204;24.686;2023-03-20T07:43:46;99796.81;;;11.96;78.24
7668;BME280;3876;42.204;24.686;2023-03-20T07:46:13;99796.56;;;12.05;78.84
7668;BME280;3876;42.204;24.686;2023-03-20T07:48:40;99787.75;;;12.12;78.59
7668;BME280;3876;42.204;24.686;2023-03-20T07:51:07;99776.84;;;12.33;77.06
7668;BME280;3876;42.204;24.686;2023-03-20T07:53:33;99776.03;;;12.57;76.83
7668;BME280;3876;42.204;24.686;2023-03-20T07:56:02;99780.88;;;12.67;75.92
7668;BME280;3876;42.204;24.686;2023-03-20T07:58:29;99779.56;;;12.81;76.32
7668;BME280;3876;42.204;24.686;2023-03-20T08:00:57;99778.91;;;12.75;76.71
7668;BME280;3876;42.204;24.686;2023-03-20T08:03:24;99776.13;;;12.81;77.10
7668;BME280;3876;42.204;24.686;2023-03-20T08:05:50;99782.22;;;13.04;77.09
7668;BME280;3876;42.204;24.686;2023-03-20T08:08:17;99782.22;;;13.29;76.21
7668;BME280;3876;42.204;24.686;2023-03-20T08:10:44;99778.16;;;13.47;75.47
7668;BME280;3876;42.204;24.686;2023-03-20T08:13:12;99780.03;;;13.66;74.99
7668;BME280;3876;42.204;24.686;2023-03-20T08:15:39;99774.69;;;13.71;75.54
7668;BME280;3876;42.204;24.686;2023-03-20T08:18:06;99774.94;;;13.87;74.79
7668;BME280;3876;42.204;24.686;2023-03-20T08:20:33;99775.69;;;14.12;74.56
7668;BME280;3876;42.204;24.686;2023-03-20T08:23:00;99775.84;;;14.31;72.44
7668;BME280;3876;42.204;24.686;2023-03-20T08:25:26;99784.31;;;14.56;71.87
7668;BME280;3876;42.204;24.686;2023-03-20T08:27:58;99778.94;;;14.60;71.60
7668;BME280;3876;42.204;24.686;2023-03-20T08:30:26;99771.03;;;14.65;71.81
7668;BME280;3876;42.204;24.686;2023-03-20T08:32:53;99771.09;;;14.84;70.41
7668;BME280;3876;42.204;24.686;2023-03-20T08:35:20;99774.34;;;14.89;69.60
7668;BME280;3876;42.204;24.686;2023-03-20T08:37:47;99779.03;;;14.99;66.70
7668;BME280;3876;42.204;24.686;2023-03-20T08:40:14;99763.06;;;14.49;67.71
7668;BME280;3876;42.204;24.686;2023-03-20T08:42:41;99756.69;;;14.58;66.67
7668;BME280;3876;42.204;24.686;2023-03-20T08:45:09;99759.34;;;14.77;66.66
7668;BME280;3876;42.204;24.686;2023-03-20T08:47:38;99761.69;;;15.03;68.77
7668;BME280;3876;42.204;24.686;2023-03-20T08:50:05;99754.47;;;15.11;67.80
7668;BME280;3876;42.204;24.686;2023-03-20T08:52:32;99764.25;;;15.23;66.81
7668;BME280;3876;42.204;24.686;2023-03-20T08:54:59;99760.78;;;15.24;67.01
7668;BME280;3876;42.204;24.686;2023-03-20T08:57:26;99751.06;;;15.49;67.35
7668;BME280;3876;42.204;24.686;2023-03-20T08:59:53;99748.34;;;15.52;65.45
7668;BME280;3876;42.204;24.686;2023-03-20T09:02:20;99752.81;;;15.67;62.76
7668;BME280;3876;42.204;24.686;2023-03-20T09:04:48;99742.28;;;15.91;64.44
7668;BME280;3876;42.204;24.686;2023-03-20T09:07:14;99749.09;;;16.10;63.09
7668;BME280;3876;42.204;24.686;2023-03-20T09:09:41;99745.38;;;16.16;62.33
7668;BME280;3876;42.204;24.686;2023-03-20T09:12:08;99745.88;;;16.24;63.08
7668;BME280;3876;42.204;24.686;2023-03-20T09:14:35;99742.16;;;16.29;61.26
7668;BME280;3876;42.204;24.686;2023-03-20T09:17:02;99738.41;;;16.35;60.12
7668;BME280;3876;42.204;24.686;2023-03-20T09:19:30;99736.84;;;16.50;59.34
7668;BME280;3876;42.204;24.686;2023-03-20T09:21:59;99726.72;;;16.45;58.59
7668;BME280;3876;42.204;24.686;2023-03-20T09:24:25;99731.94;;;16.62;58.34
7668;BME280;3876;42.204;24.686;2023-03-20T09:26:53;99730.56;;;16.72;57.95
7668;BME280;3876;42.204;24.686;2023-03-20T09:29:20;99732.16;;;16.75;56.40
7668;BME280;3876;42.204;24.686;2023-03-20T09:31:47;99725.03;;;16.80;58.06
7668;BME280;3876;42.204;24.686;2023-03-20T09:34:14;99731.84;;;16.81;59.46
7668;BME280;3876;42.204;24.686;2023-03-20T09:36:41;99720.81;;;16.95;57.61
7668;BME280;3876;42.204;24.686;2023-03-20T09:39:09;99711.66;;;16.88;57.80
7668;BME280;3876;42.204;24.686;2023-03-20T09:41:36;99725.75;;;16.99;56.86
7668;BME280;3876;42.204;24.686;2023-03-20T09:44:16;99720.50;;;16.84;56.97
7668;BME280;3876;42.204;24.686;2023-03-20T09:46:56;99721.59;;;16.62;57.37
7668;BME280;3876;42.204;24.686;2023-03-20T09:49:36;99707.25;;;16.90;56.30
7668;BME280;3876;42.204;24.686;2023-03-20T09:52:14;99701.31;;;16.88;56.95
7668;BME280;3876;42.204;24.686;2023-03-20T09:54:46;99698.66;;;16.89;57.79
7668;BME280;3876;42.204;24.686;2023-03-20T09:57:19;99697.13;;;16.85;58.00
7668;BME280;3876;42.204;24.686;2023-03-20T09:59:48;99695.31;;;17.03;56.45
7668;BME280;3876;42.204;24.686;2023-03-20T10:02:20;99684.19;;;17.18;55.84
7668;BME280;3876;42.204;24.686;2023-03-20T10:04:50;99683.97;;;17.38;55.65
7668;BME280;3876;42.204;24.686;2023-03-20T10:07:19;99675.88;;;17.44;55.57
7668;BME280;3876;42.204;24.686;2023-03-20T10:09:47;99672.19;;;17.48;55.49
7668;BME280;3876;42.204;24.686;2023-03-20T10:12:24;99673.50;;;17.24;54.58
7668;BME280;3876;42.204;24.686;2023-03-20T10:15:00;99674.84;;;17.31;54.49
7668;BME280;3876;42.204;24.686;2023-03-20T10:17:38;99653.28;;;17.30;54.67
7668;BME280;3876;42.204;24.686;2023-03-20T10:20:11;99662.94;;;17.60;53.50
7668;BME280;3876;42.204;24.686;2023-03-20T10:22:42;99664.19;;;17.68;52.40
7668;BME280;3876;42.204;24.686;2023-03-20T10:25:22;99655.31;;;17.88;54.49
7668;BME280;3876;42.204;24.686;2023-03-20T10:27:53;99647.63;;;17.87;53.59
7668;BME280;3876;42.204;24.686;2023-03-20T10:30:27;99642.75;;;17.80;54.54
7668;BME280;3876;42.204;24.686;2023-03-20T10:33:05;99642.09;;;17.61;52.41
7668;BME280;3876;42.204;24.686;2023-03-20T10:35:38;99639.94;;;17.69;54.70
7668;BME280;3876;42.204;24.686;2023-03-20T10:38:16;99624.72;;;17.79;54.13
7668;BME280;3876;42.204;24.686;2023-03-20T10:40:50;99620.69;;;17.89;55.07
7668;BME280;3876;42.204;24.686;2023-03-20T10:43:20;99624.69;;;17.95;54.33
7668;BME280;3876;42.204;24.686;2023-03-20T10:45:51;99617.94;;;18.06;53.89
7668;BME280;3876;42.204;24.686;2023-03-20T10:48:22;99619.25;;;18.13;55.12
7668;BME280;3876;42.204;24.686;2023-03-20T10:50:54;99606.78;;;18.20;54.00
7668;BME280;3876;42.204;24.686;2023-03-20T10:53:33;99610.31;;;18.19;53.17
7668;BME280;3876;42.204;24.686;2023-03-20T10:56:05;99604.94;;;18.22;52.53
7668;BME280;3876;42.204;24.686;2023-03-20T10:58:36;99594.94;;;18.30;51.73
7668;BME280;3876;42.204;24.686;2023-03-20T11:01:05;99595.31;;;18.24;52.75
7668;BME280;3876;42.204;24.686;2023-03-20T11:03:33;99588.84;;;18.31;52.95
7668;BME280;3876;42.204;24.686;2023-03-20T11:06:07;99580.09;;;18.32;52.74
7668;BME280;3876;42.204;24.686;2023-03-20T11:08:36;99574.09;;;18.46;52.18
7668;BME280;3876;42.204;24.686;2023-03-20T11:11:06;99568.56;;;18.52;50.34
7668;BME280;3876;42.204;24.686;2023-03-20T11:13:35;99567.75;;;18.51;50.46
7668;BME280;3876;42.204;24.686;2023-03-20T11:16:10;99558.94;;;18.68;51.13
7668;BME280;3876;42.204;24.686;2023-03-20T11:18:39;99554.00;;;18.77;51.69
7668;BME280;3876;42.204;24.686;2023-03-20T11:21:14;99540.84;;;18.80;49.60
7668;BME280;3876;42.204;24.686;2023-03-20T11:23:41;99548.47;;;18.83;50.58
7668;BME280;3876;42.204;24.686;2023-03-20T11:26:12;99539.16;;;18.94;49.75
7668;BME280;3876;42.204;24.686;2023-03-20T11:28:46;99535.63;;;18.95;48.85
7668;BME280;3876;42.204;24.686;2023-03-20T11:31:19;99533.22;;;19.06;49.81
7668;BME280;3876;42.204;24.686;2023-03-20T11:33:52;99530.25;;;18.98;50.34
7668;BME280;3876;42.204;24.686;2023-03-20T11:36:27;99519.47;;;19.04;49.55
7668;BME280;3876;42.204;24.686;2023-03-20T11:39:00;99513.59;;;19.14;48.92
7668;BME280;3876;42.204;24.686;2023-03-20T11:41:32;99512.22;;;19.09;50.79
7668;BME280;3876;42.204;24.686;2023-03-20T11:43:59;99503.28;;;19.13;52.34
7668;BME280;3876;42.204;24.686;2023-03-20T11:46:26;99491.03;;;19.15;50.61
7668;BME280;3876;42.204;24.686;2023-03-20T11:49:18;99495.06;;;19.33;47.75
7668;BME280;3876;42.204;24.686;2023-03-20T11:51:45;99500.88;;;19.36;47.28
7668;BME280;3876;42.204;24.686;2023-03-20T11:54:15;99498.69;;;19.45;47.76
7668;BME280;3876;42.204;24.686;2023-03-20T11:56:52;99494.84;;;19.36;46.86
7668;BME280;3876;42.204;24.686;2023-03-20T11:59:20;99484.44;;;19.36;46.70
7668;BME280;3876;42.204;24.686;2023-03-20T12:01:49;99484.09;;;19.42;46.60
7668;BME280;3876;42.204;24.686;2023-03-20T12:04:18;99473.06;;;19.38;47.04
7668;BME280;3876;42.204;24.686;2023-03-20T12:06:49;99468.13;;;19.48;46.11
7668;BME280;3876;42.204;24.686;2023-03-20T12:09:25;99470.16;;;19.43;46.29
7668;BME280;3876;42.204;24.686;2023-03-20T12:11:58;99467.91;;;19.51;46.75
7668;BME280;3876;42.204;24.686;2023-03-20T12:14:33;99467.72;;;19.67;46.67
7668;BME280;3876;42.204;24.686;2023-03-20T12:20:32;99466.47;;;19.72;45.28
7668;BME280;3876;42.204;24.686;2023-03-20T12:23:10;99467.09;;;19.76;44.60
7668;BME280;3876;42.204;24.686;2023-03-20T12:25:46;99468.88;;;19.75;44.59
7668;BME280;3876;42.204;24.686;2023-03-20T12:28:23;99467.09;;;19.76;44.53
7668;BME280;3876;42.204;24.686;2023-03-20T12:30:58;99459.00;;;19.80;45.91
7668;BME280;3876;42.204;24.686;2023-03-20T12:33:37;99452.34;;;19.76;45.05
7668;BME280;3876;42.204;24.686;2023-03-20T12:36:12;99451.81;;;19.71;44.35
7668;BME280;3876;42.204;24.686;2023-03-20T12:38:40;99455.03;;;19.87;44.36
7668;BME280;3876;42.204;24.686;2023-03-20T12:41:11;99450.59;;;19.89;44.36
7668;BME280;3876;42.204;24.686;2023-03-20T12:43:51;99444.63;;;19.87;44.31
7668;BME280;3876;42.204;24.686;2023-03-20T12:46:26;99439.13;;;20.05;44.28
7668;BME280;3876;42.204;24.686;2023-03-20T12:49:04;99440.78;;;20.18;44.55
7668;BME280;3876;42.204;24.686;2023-03-20T12:51:40;99437.84;;;20.23;43.13
7668;BME280;3876;42.204;24.686;2023-03-20T12:54:24;99429.03;;;20.13;42.96
7668;BME280;3876;42.204;24.686;2023-03-20T12:57:04;99425.59;;;20.25;43.46
7668;BME280;3876;42.204;24.686;2023-03-20T12:59:41;99425.69;;;20.36;43.33
7668;BME280;3876;42.204;24.686;2023-03-20T13:02:29;99420.56;;;20.47;42.41
7668;BME280;3876;42.204;24.686;2023-03-20T13:05:12;99419.13;;;20.43;42.91
7668;BME280;3876;42.204;24.686;2023-03-20T13:07:57;99413.25;;;20.52;44.20
7668;BME280;3876;42.204;24.686;2023-03-20T13:10:30;99415.41;;;20.58;42.05
7668;BME280;3876;42.204;24.686;2023-03-20T13:13:08;99412.22;;;20.55;41.64
7668;BME280;3876;42.204;24.686;2023-03-20T13:15:54;99410.66;;;20.52;42.25
7668;BME280;3876;42.204;24.686;2023-03-20T13:18:36;99396.91;;;20.50;42.06
7668;BME280;3876;42.204;24.686;2023-03-20T13:21:09;99399.81;;;20.46;41.89
7668;BME280;3876;42.204;24.686;2023-03-20T13:23:43;99388.44;;;20.35;42.12
7668;BME280;3876;42.204;24.686;2023-03-20T13:26:16;99389.44;;;20.33;41.52
7668;BME280;3876;42.204;24.686;2023-03-20T13:28:54;99389.53;;;20.44;42.33
7668;BME280;3876;42.204;24.686;2023-03-20T13:31:35;99387.13;;;20.54;42.16
7668;BME280;3876;42.204;24.686;2023-03-20T13:34:13;99379.63;;;20.49;41.33
7668;BME280;3876;42.204;24.686;2023-03-20T13:36:51;99377.53;;;20.54;40.46
7668;BME280;3876;42.204;24.686;2023-03-20T13:39:26;99384.69;;;20.63;41.24